CYES weather

Edmundston Airport
Edmundston, New Brunswick, Canada

Public forecast

Using degrees Celsius for public forecast. Weather courtesy of forecast.io.

METAR (pilot weather report)

Closest report is Northern Aroostook Regional Airport, 14.1 nm (26.1 km) SSE. Retrieved 2019/04/23 21:26 UTC (19 minutes ago):

KFVE 232126Z AUTO 07012KT 10SM SCT009 BKN015 OVC023 03/M01 A3000 RMK AO2 T00281011

TAF (pilot weather forecast)

Closest forecast is Northern Aroostook Regional Airport, 14.1 nm (26.1 km) SSE. Retrieved 2019/04/23 18:27 UTC (3 hours ago):

TAF KFVE 231720Z 2318/2418 08008KT P6SM VCSH OVC030 FM232300 07008KT P6SM VCSH OVC015 FM241000 08006KT 3SM -RAPL OVC009 FM241100 08006KT 2SM -RAPL OVC008